Time;durP1;ratioP1;P1;durP2;ratioP2;P2;SDS_P1;SDS_P2;PMS_P1;PMS_P2;Temp;Humidity;BMP_temperature;BMP_pressure;BME280_temperature;BME280_humidity;BME280_pressure;Samples;Min_cycle;Max_cycle;Signal;HPM_P1;HPM_P2
2023/10/03 00:02:05;;;;;;;23.67;10.35;;;;;;;;;;5053109;28;20118;-69
2023/10/03 00:04:31;;;;;;;26.38;11.88;;;;;;;;;;5053001;28;20041;-69
2023/10/03 00:06:58;;;;;;;25.67;11.43;;;;;;;;;;5052208;28;20095;-69
2023/10/03 00:09:25;;;;;;;23.45;10.35;;;;;;;;;;5052871;28;20049;-69
2023/10/03 00:11:52;;;;;;;23.52;10.75;;;;;;;;;;5052791;28;20280;-69
2023/10/03 00:14:19;;;;;;;30.15;10.55;;;;;;;;;;5052602;28;20044;-69
2023/10/03 00:16:45;;;;;;;21.73;9.82;;;;;;;;;;5053141;28;20053;-69
2023/10/03 00:19:13;;;;;;;29.77;11.35;;;;;;;;;;5052645;28;20049;-69
2023/10/03 00:21:40;;;;;;;28.95;11.23;;;;;;;;;;5049858;28;20068;-69
2023/10/03 00:24:07;;;;;;;29.60;11.05;;;;;;;;;;5052802;28;20049;-69
2023/10/03 00:26:34;;;;;;;31.17;10.55;;;;;;;;;;5052041;28;20053;-69
2023/10/03 00:29:00;;;;;;;27.00;11.98;;;;;;;;;;5052687;28;20433;-69
2023/10/03 00:31:29;;;;;;;27.27;11.40;;;;;;;;;;5052487;28;20049;-69
2023/10/03 00:33:56;;;;;;;32.03;12.10;;;;;;;;;;5052086;28;20064;-69
2023/10/03 00:36:25;;;;;;;26.67;11.52;;;;;;;;;;5052002;28;20053;-69
2023/10/03 00:38:52;;;;;;;30.52;12.57;;;;;;;;;;5052252;28;20512;-69
2023/10/03 00:41:19;;;;;;;28.85;11.25;;;;;;;;;;5052180;28;20056;-68
2023/10/03 00:43:58;;;;;;;38.10;12.32;;;;;;;;;;5052130;28;20053;-69
2023/10/03 00:46:26;;;;;;;26.92;10.75;;;;;;;;;;5051923;28;20041;-69
2023/10/03 00:48:53;;;;;;;25.98;11.27;;;;;;;;;;5052198;28;20056;-69
2023/10/03 00:51:20;;;;;;;29.15;11.00;;;;;;;;;;5052044;28;20044;-69
2023/10/03 00:53:51;;;;;;;23.92;11.27;;;;;;;;;;5051644;28;20060;-69
2023/10/03 00:56:19;;;;;;;27.88;11.38;;;;;;;;;;5051896;28;20451;-69
2023/10/03 00:58:45;;;;;;;28.90;11.13;;;;;;;;;;5051967;28;20048;-69
2023/10/03 01:01:12;;;;;;;23.20;11.15;;;;;;;;;;5052448;28;20047;-69
2023/10/03 01:03:39;;;;;;;23.70;10.50;;;;;;;;;;5051640;28;20053;-69
2023/10/03 01:06:08;;;;;;;27.83;10.43;;;;;;;;;;5051270;28;20049;-68
2023/10/03 01:08:37;;;;;;;32.80;11.02;;;;;;;;;;5051864;28;20135;-69
2023/10/03 01:11:05;;;;;;;27.40;10.90;;;;;;;;;;5052084;28;20179;-69
2023/10/03 01:13:32;;;;;;;27.27;10.77;;;;;;;;;;5051251;28;20045;-69
2023/10/03 01:15:59;;;;;;;25.88;11.27;;;;;;;;;;5051344;28;20045;-69
2023/10/03 01:18:30;;;;;;;28.75;11.20;;;;;;;;;;5050702;28;20539;-69
2023/10/03 01:21:00;;;;;;;26.83;10.80;;;;;;;;;;5051810;28;20080;-69
2023/10/03 01:23:32;;;;;;;24.73;11.45;;;;;;;;;;5051155;28;20053;-68
2023/10/03 01:25:58;;;;;;;23.67;10.93;;;;;;;;;;5051415;28;20041;-69
2023/10/03 01:28:26;;;;;;;25.13;10.95;;;;;;;;;;5051420;28;20045;-69
2023/10/03 01:30:53;;;;;;;22.20;11.15;;;;;;;;;;5051294;28;20068;-69
2023/10/03 01:33:22;;;;;;;20.63;9.88;;;;;;;;;;5050849;28;20045;-69
2023/10/03 01:35:49;;;;;;;22.27;10.77;;;;;;;;;;5051326;28;20048;-69
2023/10/03 01:38:15;;;;;;;23.25;10.52;;;;;;;;;;5050649;28;20060;-69
2023/10/03 01:40:43;;;;;;;22.42;10.38;;;;;;;;;;5051297;28;20402;-69
2023/10/03 01:43:10;;;;;;;21.90;9.68;;;;;;;;;;5050957;28;20056;-69
2023/10/03 01:45:37;;;;;;;22.33;10.75;;;;;;;;;;5050856;28;20045;-69
2023/10/03 01:48:05;;;;;;;21.63;10.13;;;;;;;;;;5050525;28;20323;-69
2023/10/03 01:50:33;;;;;;;23.58;9.38;;;;;;;;;;5051179;28;20053;-69
2023/10/03 01:53:00;;;;;;;20.88;10.13;;;;;;;;;;5050899;28;20103;-69
2023/10/03 01:55:27;;;;;;;25.65;10.75;;;;;;;;;;5051307;28;20091;-68
2023/10/03 01:57:55;;;;;;;18.95;9.40;;;;;;;;;;5050490;28;20507;-69
2023/10/03 02:00:24;;;;;;;22.70;9.98;;;;;;;;;;5050636;28;20107;-69
2023/10/03 02:02:51;;;;;;;23.83;10.20;;;;;;;;;;5050815;28;20561;-69
2023/10/03 02:05:21;;;;;;;21.85;10.02;;;;;;;;;;5050948;28;20398;-71
2023/10/03 02:07:48;;;;;;;23.25;10.52;;;;;;;;;;5050521;28;20102;-69
2023/10/03 02:10:15;;;;;;;27.58;10.52;;;;;;;;;;5050718;28;20048;-69
2023/10/03 02:12:48;;;;;;;26.08;10.30;;;;;;;;;;5050324;28;20567;-69
2023/10/03 02:15:20;;;;;;;20.23;9.40;;;;;;;;;;5050928;28;20373;-69
2023/10/03 02:17:49;;;;;;;24.38;10.40;;;;;;;;;;5050552;28;20045;-69
2023/10/03 02:20:20;;;;;;;22.23;9.73;;;;;;;;;;5050484;28;20124;-69
2023/10/03 02:22:53;;;;;;;19.63;9.43;;;;;;;;;;5050580;28;20106;-69
2023/10/03 02:25:23;;;;;;;25.38;9.73;;;;;;;;;;5050229;28;20493;-69
2023/10/03 02:27:51;;;;;;;20.00;9.65;;;;;;;;;;5050349;28;20123;-69
2023/10/03 02:30:23;;;;;;;24.23;9.95;;;;;;;;;;5053697;28;20049;-69
2023/10/03 02:32:52;;;;;;;22.55;10.32;;;;;;;;;;5054705;28;20045;-69
2023/10/03 02:35:19;;;;;;;22.55;10.57;;;;;;;;;;5054614;28;20558;-69
2023/10/03 02:37:47;;;;;;;20.08;8.80;;;;;;;;;;5054015;28;20175;-69
2023/10/03 02:40:15;;;;;;;23.05;9.02;;;;;;;;;;5054796;28;20045;-69
2023/10/03 02:42:41;;;;;;;21.55;9.43;;;;;;;;;;5051895;28;20420;-69
2023/10/03 02:45:09;;;;;;;24.20;9.70;;;;;;;;;;5054502;28;20056;-69
2023/10/03 02:47:39;;;;;;;20.45;9.23;;;;;;;;;;5054310;28;20106;-69
2023/10/03 02:50:07;;;;;;;21.77;10.15;;;;;;;;;;5051419;28;20045;-68
2023/10/03 02:52:35;;;;;;;22.00;9.50;;;;;;;;;;5054058;28;20068;-69
2023/10/03 02:55:02;;;;;;;18.92;8.85;;;;;;;;;;5050607;28;20060;-69
2023/10/03 02:57:29;;;;;;;24.33;9.40;;;;;;;;;;5053999;28;20045;-69
2023/10/03 02:59:56;;;;;;;22.13;9.88;;;;;;;;;;5054186;28;20045;-69
2023/10/03 03:02:22;;;;;;;21.13;10.10;;;;;;;;;;5053953;28;20060;-69
2023/10/03 03:04:50;;;;;;;22.23;9.75;;;;;;;;;;5054008;28;20420;-69
2023/10/03 03:07:18;;;;;;;18.02;8.77;;;;;;;;;;5054207;28;20053;-69
2023/10/03 03:09:44;;;;;;;18.92;8.80;;;;;;;;;;5054118;28;20045;-69
2023/10/03 03:12:13;;;;;;;19.83;9.15;;;;;;;;;;5053902;28;20466;-69
2023/10/03 03:14:41;;;;;;;18.65;8.98;;;;;;;;;;5053838;28;20394;-69
2023/10/03 03:17:14;;;;;;;20.27;9.40;;;;;;;;;;5053491;28;20072;-69
2023/10/03 03:19:40;;;;;;;;;;;;;;;;;;5054100;28;20041;-69
2023/10/03 03:22:09;;;;;;;18.58;8.65;;;;;;;;;;5053744;28;19927;-69
2023/10/03 03:24:36;;;;;;;17.58;8.85;;;;;;;;;;5053733;28;20053;-69
2023/10/03 03:27:11;;;;;;;19.60;8.60;;;;;;;;;;5049792;28;20052;-69
2023/10/03 03:29:38;;;;;;;17.67;8.98;;;;;;;;;;5053639;28;20358;-69
2023/10/03 03:32:05;;;;;;;19.00;8.90;;;;;;;;;;5053308;28;20052;-68
2023/10/03 03:34:31;;;;;;;24.65;8.90;;;;;;;;;;5053691;28;20547;-69
2023/10/03 03:37:20;;;;;;;20.45;8.55;;;;;;;;;;5053138;28;20049;-69
2023/10/03 03:39:53;;;;;;;18.63;8.50;;;;;;;;;;5053284;28;20077;-69
2023/10/03 03:42:19;;;;;;;17.65;8.68;;;;;;;;;;5052357;28;20127;-69
2023/10/03 03:44:46;;;;;;;16.98;8.18;;;;;;;;;;5053316;28;20049;-69
2023/10/03 03:47:13;;;;;;;19.20;8.65;;;;;;;;;;5052898;28;20045;-69
2023/10/03 03:49:40;;;;;;;22.40;9.43;;;;;;;;;;5053467;28;20049;-69
2023/10/03 03:52:09;;;;;;;25.23;9.32;;;;;;;;;;5053152;28;20570;-69
2023/10/03 03:54:35;;;;;;;20.33;9.25;;;;;;;;;;5053104;28;20106;-68
2023/10/03 03:57:05;;;;;;;20.20;9.05;;;;;;;;;;5052625;28;20408;-69
2023/10/03 03:59:32;;;;;;;21.23;8.93;;;;;;;;;;5052336;28;20110;-68
2023/10/03 04:02:00;;;;;;;20.15;9.32;;;;;;;;;;5053278;28;20576;-68
2023/10/03 04:04:26;;;;;;;23.30;9.32;;;;;;;;;;5052949;28;20128;-69
2023/10/03 04:06:55;;;;;;;20.05;8.52;;;;;;;;;;5052670;28;20417;-68
2023/10/03 04:09:21;;;;;;;20.67;9.75;;;;;;;;;;5052788;28;20051;-68
2023/10/03 04:11:48;;;;;;;20.15;8.70;;;;;;;;;;5052538;28;20410;-68
2023/10/03 04:14:16;;;;;;;18.60;8.35;;;;;;;;;;5052616;28;20055;-68
2023/10/03 04:16:43;;;;;;;23.83;8.88;;;;;;;;;;5050351;28;20045;-68
2023/10/03 04:19:11;;;;;;;17.13;8.40;;;;;;;;;;5052457;28;20049;-68
2023/10/03 04:21:40;;;;;;;21.20;8.98;;;;;;;;;;5052668;28;20126;-68
2023/10/03 04:24:09;;;;;;;17.98;8.40;;;;;;;;;;5052035;28;20098;-69
2023/10/03 04:26:39;;;;;;;19.20;9.05;;;;;;;;;;5052501;28;20049;-68
2023/10/03 04:29:06;;;;;;;21.20;9.27;;;;;;;;;;5049613;28;20439;-68
2023/10/03 04:31:34;;;;;;;20.05;8.65;;;;;;;;;;5052530;28;20045;-68
2023/10/03 04:34:00;;;;;;;22.33;9.80;;;;;;;;;;5052154;28;20063;-68
2023/10/03 04:36:28;;;;;;;21.88;9.70;;;;;;;;;;5051914;28;20045;-68
2023/10/03 04:38:54;;;;;;;21.33;9.90;;;;;;;;;;5052202;28;20127;-69
2023/10/03 04:41:21;;;;;;;21.40;9.20;;;;;;;;;;5052410;28;20501;-68
2023/10/03 04:43:49;;;;;;;17.95;9.10;;;;;;;;;;5052551;28;20065;-68
2023/10/03 04:46:16;;;;;;;22.40;9.63;;;;;;;;;;5051750;28;20056;-69
2023/10/03 04:48:44;;;;;;;23.67;9.40;;;;;;;;;;5052138;28;20049;-68
2023/10/03 04:51:14;;;;;;;16.15;8.68;;;;;;;;;;5051777;28;20045;-68
2023/10/03 04:53:41;;;;;;;20.73;9.32;;;;;;;;;;5048217;28;20492;-68
2023/10/03 04:56:08;;;;;;;19.80;8.82;;;;;;;;;;5051587;28;20124;-68
2023/10/03 04:58:34;;;;;;;20.10;10.38;;;;;;;;;;5052202;28;20048;-68
2023/10/03 05:01:01;;;;;;;19.02;9.18;;;;;;;;;;5051849;28;20493;-68
2023/10/03 05:03:28;;;;;;;16.52;8.88;;;;;;;;;;5051577;28;20124;-68
2023/10/03 05:05:56;;;;;;;21.42;9.43;;;;;;;;;;5051584;28;20572;-68
2023/10/03 05:08:22;;;;;;;21.20;9.70;;;;;;;;;;5051417;28;20048;-68
2023/10/03 05:10:49;;;;;;;18.08;9.25;;;;;;;;;;5051797;28;20432;-68
2023/10/03 05:13:16;;;;;;;21.80;9.57;;;;;;;;;;5051281;28;20132;-68
2023/10/03 05:15:43;;;;;;;20.20;8.98;;;;;;;;;;5051783;28;20424;-68
2023/10/03 05:18:10;;;;;;;22.70;9.25;;;;;;;;;;5051175;28;20118;-68
2023/10/03 05:20:37;;;;;;;17.17;8.93;;;;;;;;;;5051633;28;20100;-68
2023/10/03 05:23:06;;;;;;;21.15;9.73;;;;;;;;;;5047897;28;20079;-68
2023/10/03 05:25:36;;;;;;;19.58;9.77;;;;;;;;;;5051387;28;20132;-68
2023/10/03 05:28:03;;;;;;;18.38;8.52;;;;;;;;;;5047652;28;20123;-68
2023/10/03 05:30:33;;;;;;;19.05;9.82;;;;;;;;;;5049928;28;20048;-69
2023/10/03 05:32:59;;;;;;;17.58;8.68;;;;;;;;;;5050908;28;20045;-68
2023/10/03 05:35:26;;;;;;;18.92;9.27;;;;;;;;;;5051062;28;20136;-68
2023/10/03 05:37:53;;;;;;;16.63;8.90;;;;;;;;;;5050966;28;20048;-68
2023/10/03 05:40:20;;;;;;;17.60;8.95;;;;;;;;;;5051088;28;20053;-68
2023/10/03 05:42:48;;;;;;;19.30;8.57;;;;;;;;;;5051082;28;20045;-68
2023/10/03 05:45:15;;;;;;;18.45;8.88;;;;;;;;;;5051065;28;20044;-68
2023/10/03 05:47:44;;;;;;;17.77;9.10;;;;;;;;;;5050708;28;20049;-68
2023/10/03 05:50:11;;;;;;;19.30;8.18;;;;;;;;;;5051120;28;20045;-68
2023/10/03 05:52:39;;;;;;;18.15;8.90;;;;;;;;;;5050649;28;20064;-68
2023/10/03 05:55:07;;;;;;;21.83;9.95;;;;;;;;;;5050970;28;20113;-68
2023/10/03 05:57:37;;;;;;;19.88;9.45;;;;;;;;;;5050582;28;20068;-69
2023/10/03 06:00:08;;;;;;;15.55;8.23;;;;;;;;;;5047137;28;20041;-68
2023/10/03 06:02:34;;;;;;;16.45;8.63;;;;;;;;;;5051015;28;20059;-68
2023/10/03 06:05:01;;;;;;;15.48;9.15;;;;;;;;;;5050544;28;20453;-68
2023/10/03 06:07:28;;;;;;;16.90;8.85;;;;;;;;;;5050562;28;20048;-68
2023/10/03 06:09:55;;;;;;;20.75;9.07;;;;;;;;;;5050896;28;20106;-69
2023/10/03 06:12:23;;;;;;;18.90;9.50;;;;;;;;;;5050099;28;20060;-68
2023/10/03 06:14:52;;;;;;;18.92;9.18;;;;;;;;;;5050847;28;20053;-68
2023/10/03 06:17:19;;;;;;;17.08;8.68;;;;;;;;;;5050411;28;20524;-69
2023/10/03 06:19:46;;;;;;;20.20;10.10;;;;;;;;;;5050758;28;20497;-69
2023/10/03 06:22:12;;;;;;;20.05;9.00;;;;;;;;;;5050479;28;20048;-68
2023/10/03 06:24:39;;;;;;;18.27;9.95;;;;;;;;;;5050393;28;20091;-69
2023/10/03 06:27:09;;;;;;;17.67;10.05;;;;;;;;;;5050004;28;20045;-69
2023/10/03 06:29:35;;;;;;;21.13;10.00;;;;;;;;;;5050932;28;20071;-69
2023/10/03 06:32:04;;;;;;;18.48;10.23;;;;;;;;;;5050593;28;20045;-68
2023/10/03 06:34:30;;;;;;;18.00;10.23;;;;;;;;;;5050276;28;20059;-69
2023/10/03 06:36:57;;;;;;;18.83;10.20;;;;;;;;;;5050317;28;20143;-68
2023/10/03 06:39:23;;;;;;;14.60;9.30;;;;;;;;;;5050367;28;20095;-69
2023/10/03 06:41:51;;;;;;;15.20;8.90;;;;;;;;;;5050372;28;20049;-69
2023/10/03 06:44:17;;;;;;;17.35;9.48;;;;;;;;;;5050166;28;20052;-68
2023/10/03 06:46:44;;;;;;;17.92;9.68;;;;;;;;;;5050475;28;20044;-69
2023/10/03 06:49:12;;;;;;;19.02;9.68;;;;;;;;;;5050411;28;20056;-68
2023/10/03 06:51:38;;;;;;;12.90;8.68;;;;;;;;;;5050362;28;20048;-68
2023/10/03 06:54:05;;;;;;;15.10;8.80;;;;;;;;;;5050034;28;20094;-68
2023/10/03 06:56:34;;;;;;;17.83;7.82;;;;;;;;;;5050232;28;20413;-69
2023/10/03 06:59:00;;;;;;;14.05;7.97;;;;;;;;;;5050557;28;20500;-69
2023/10/03 07:01:27;;;;;;;12.50;7.13;;;;;;;;;;5050288;28;20052;-69
2023/10/03 07:03:56;;;;;;;11.20;6.85;;;;;;;;;;5050106;28;20053;-69
2023/10/03 07:06:24;;;;;;;11.82;7.18;;;;;;;;;;5049788;28;20477;-69
2023/10/03 07:08:51;;;;;;;10.20;5.90;;;;;;;;;;5049924;28;20640;-69
2023/10/03 07:11:18;;;;;;;10.05;6.22;;;;;;;;;;5039989;28;20057;-68
2023/10/03 07:13:44;;;;;;;10.02;6.05;;;;;;;;;;5041401;28;20420;-68
2023/10/03 07:16:11;;;;;;;8.68;5.65;;;;;;;;;;5043422;28;20061;-68
2023/10/03 07:18:39;;;;;;;10.98;6.32;;;;;;;;;;5045790;28;20167;-69
2023/10/03 07:21:06;;;;;;;11.35;6.03;;;;;;;;;;5045101;28;20061;-69
2023/10/03 07:23:33;;;;;;;13.70;6.18;;;;;;;;;;5053473;28;20390;-69
2023/10/03 07:26:00;;;;;;;13.68;6.10;;;;;;;;;;5053289;28;20098;-68
2023/10/03 07:28:27;;;;;;;10.90;5.78;;;;;;;;;;5052589;28;20045;-69
2023/10/03 07:30:53;;;;;;;10.82;6.05;;;;;;;;;;5053411;28;20432;-69
2023/10/03 07:33:22;;;;;;;9.77;5.60;;;;;;;;;;5053040;28;20402;-69
2023/10/03 07:35:49;;;;;;;11.80;5.78;;;;;;;;;;5053443;28;20069;-69
2023/10/03 07:38:15;;;;;;;9.40;5.82;;;;;;;;;;5053655;28;20044;-69
2023/10/03 07:40:44;;;;;;;11.20;6.10;;;;;;;;;;5053448;28;20041;-69
2023/10/03 07:43:12;;;;;;;9.32;5.70;;;;;;;;;;5053580;28;20131;-69
2023/10/03 07:45:38;;;;;;;11.43;5.18;;;;;;;;;;5053592;28;20049;-68
2023/10/03 07:48:06;;;;;;;12.23;5.13;;;;;;;;;;5053114;28;20494;-69
2023/10/03 07:50:35;;;;;;;10.15;5.15;;;;;;;;;;5053303;28;20056;-69
2023/10/03 07:53:02;;;;;;;11.07;5.90;;;;;;;;;;5053488;28;20410;-69
2023/10/03 07:55:29;;;;;;;9.02;5.45;;;;;;;;;;5053303;28;20124;-69
2023/10/03 07:57:59;;;;;;;9.45;5.63;;;;;;;;;;5052837;28;20080;-69
2023/10/03 08:00:26;;;;;;;9.63;5.47;;;;;;;;;;5053185;28;20436;-69
2023/10/03 08:02:53;;;;;;;8.55;5.40;;;;;;;;;;5052766;28;20087;-69
2023/10/03 08:05:20;;;;;;;8.02;5.45;;;;;;;;;;5053079;28;20048;-69
2023/10/03 08:07:48;;;;;;;8.38;5.03;;;;;;;;;;5052673;28;20056;-69
2023/10/03 08:10:16;;;;;;;10.23;5.10;;;;;;;;;;5052939;28;20471;-69
2023/10/03 08:12:43;;;;;;;9.82;5.47;;;;;;;;;;5052659;28;20053;-69
2023/10/03 08:15:17;;;;;;;9.90;5.10;;;;;;;;;;5052843;28;20055;-69
2023/10/03 08:17:45;;;;;;;9.00;5.00;;;;;;;;;;5052544;28;20052;-69
2023/10/03 08:20:14;;;;;;;7.80;4.93;;;;;;;;;;5052923;28;20048;-68
2023/10/03 08:22:41;;;;;;;11.77;5.18;;;;;;;;;;5052544;28;20099;-69
2023/10/03 08:25:09;;;;;;;7.82;5.00;;;;;;;;;;5052569;28;20045;-69
2023/10/03 08:27:35;;;;;;;9.55;5.10;;;;;;;;;;5052102;28;20119;-68
2023/10/03 08:30:03;;;;;;;11.00;5.18;;;;;;;;;;5052286;28;20393;-69
2023/10/03 08:32:32;;;;;;;9.52;5.30;;;;;;;;;;5052497;28;20048;-69
2023/10/03 08:34:58;;;;;;;9.13;4.82;;;;;;;;;;5052547;28;20130;-69
2023/10/03 08:37:25;;;;;;;10.90;5.18;;;;;;;;;;5052071;28;20049;-69
2023/10/03 08:39:52;;;;;;;8.13;5.00;;;;;;;;;;5052189;28;20049;-68
2023/10/03 08:42:34;;;;;;;9.70;5.30;;;;;;;;;;5051990;28;20041;-68
2023/10/03 08:45:16;;;;;;;9.02;4.65;;;;;;;;;;5052506;28;20041;-69
2023/10/03 08:47:47;;;;;;;9.13;4.35;;;;;;;;;;5051832;28;20041;-69
2023/10/03 08:50:29;;;;;;;8.37;5.20;;;;;;;;;;5052292;28;20508;-69
2023/10/03 08:52:56;;;;;;;9.98;5.30;;;;;;;;;;5052539;28;20270;-69
2023/10/03 08:55:26;;;;;;;7.53;4.53;;;;;;;;;;5052045;28;20045;-69
2023/10/03 08:57:53;;;;;;;8.63;4.60;;;;;;;;;;5051881;28;20454;-69
2023/10/03 09:00:25;;;;;;;10.43;4.63;;;;;;;;;;5051884;28;20049;-69
2023/10/03 09:02:59;;;;;;;7.50;4.80;;;;;;;;;;5051902;28;20522;-69
2023/10/03 09:05:26;;;;;;;10.75;5.40;;;;;;;;;;5051581;28;20136;-69
2023/10/03 09:07:55;;;;;;;10.25;4.95;;;;;;;;;;5051382;28;20049;-69
2023/10/03 09:10:23;;;;;;;9.50;5.25;;;;;;;;;;5051783;28;20136;-69
2023/10/03 09:12:51;;;;;;;7.13;4.85;;;;;;;;;;5051578;28;20069;-69
2023/10/03 09:15:18;;;;;;;9.68;5.10;;;;;;;;;;5051760;28;20493;-69
2023/10/03 09:17:49;;;;;;;9.57;5.15;;;;;;;;;;5051244;28;20045;-69
2023/10/03 09:20:22;;;;;;;9.82;4.88;;;;;;;;;;5051682;28;20049;-69
2023/10/03 09:22:48;;;;;;;8.75;4.88;;;;;;;;;;5049532;28;20550;-69
2023/10/03 09:25:16;;;;;;;8.25;4.85;;;;;;;;;;5051484;28;20056;-69
2023/10/03 09:27:44;;;;;;;9.88;4.57;;;;;;;;;;5048316;28;20045;-69
2023/10/03 09:30:22;;;;;;;8.77;4.70;;;;;;;;;;5051438;28;20053;-69
2023/10/03 09:32:50;;;;;;;12.93;4.82;;;;;;;;;;5051352;28;20044;-69
2023/10/03 09:35:17;;;;;;;6.18;4.03;;;;;;;;;;5051707;28;20072;-69
2023/10/03 09:37:48;;;;;;;6.50;4.15;;;;;;;;;;5051357;28;20045;-69
2023/10/03 09:40:18;;;;;;;9.55;4.88;;;;;;;;;;5050709;28;20489;-69
2023/10/03 09:42:48;;;;;;;7.75;4.45;;;;;;;;;;5051029;28;20041;-69
2023/10/03 09:45:17;;;;;;;10.30;4.18;;;;;;;;;;5051082;28;20150;-69
2023/10/03 09:47:45;;;;;;;9.80;4.57;;;;;;;;;;5050976;28;20402;-69
2023/10/03 09:50:12;;;;;;;8.10;4.20;;;;;;;;;;5051313;28;20045;-69
2023/10/03 09:52:44;;;;;;;11.20;4.57;;;;;;;;;;5051004;28;20049;-69
2023/10/03 09:55:21;;;;;;;9.15;5.07;;;;;;;;;;5051132;28;20053;-68
2023/10/03 09:57:51;;;;;;;6.82;4.38;;;;;;;;;;5051100;28;20051;-69
2023/10/03 10:00:38;;;;;;;8.85;3.88;;;;;;;;;;5050949;28;20073;-69
2023/10/03 10:03:07;;;;;;;9.50;4.20;;;;;;;;;;5047561;28;20300;-69
2023/10/03 10:05:34;;;;;;;6.32;3.65;;;;;;;;;;5050028;28;20053;-69
2023/10/03 10:08:08;;;;;;;5.68;3.85;;;;;;;;;;5050629;28;20056;-69
2023/10/03 10:10:36;;;;;;;6.65;4.00;;;;;;;;;;5049900;28;20059;-69
2023/10/03 10:13:12;;;;;;;8.07;3.88;;;;;;;;;;5050751;28;20073;-69
2023/10/03 10:16:07;;;;;;;7.93;3.70;;;;;;;;;;5050505;28;20051;-69
2023/10/03 10:19:00;;;;;;;6.82;3.47;;;;;;;;;;5051127;28;20462;-69
2023/10/03 10:21:30;;;;;;;7.05;3.53;;;;;;;;;;5050609;28;20041;-69
2023/10/03 10:24:24;;;;;;;7.05;3.63;;;;;;;;;;5051117;28;20056;-69
2023/10/03 10:26:53;;;;;;;6.78;3.90;;;;;;;;;;5048657;28;20091;-69
2023/10/03 10:29:20;;;;;;;6.45;3.67;;;;;;;;;;5050853;28;20416;-69
2023/10/03 10:31:52;;;;;;;8.50;4.40;;;;;;;;;;5050972;28;20398;-69
2023/10/03 10:34:46;;;;;;;10.40;5.07;;;;;;;;;;5050561;28;20068;-69
2023/10/03 10:37:17;;;;;;;10.05;5.55;;;;;;;;;;5047800;28;20053;-69
2023/10/03 10:40:09;;;;;;;7.85;4.03;;;;;;;;;;5050834;28;20124;-68
2023/10/03 10:42:56;;;;;;;7.80;4.40;;;;;;;;;;5050512;28;20049;-69
2023/10/03 10:45:24;;;;;;;7.63;4.50;;;;;;;;;;5049270;28;20044;-69
2023/10/03 10:47:51;;;;;;;12.68;4.90;;;;;;;;;;5050437;28;20041;-69
2023/10/03 10:50:18;;;;;;;9.10;4.65;;;;;;;;;;5051662;28;20045;-69
2023/10/03 10:52:52;;;;;;;7.88;5.10;;;;;;;;;;5054466;28;20061;-69
2023/10/03 10:55:19;;;;;;;8.65;5.57;;;;;;;;;;5054438;28;20041;-69
2023/10/03 10:57:45;;;;;;;7.95;5.50;;;;;;;;;;5054166;28;20056;-69
2023/10/03 11:00:22;;;;;;;7.75;5.20;;;;;;;;;;5054089;28;20064;-69
2023/10/03 11:02:49;;;;;;;8.48;5.15;;;;;;;;;;5054075;28;20048;-69
2023/10/03 11:05:16;;;;;;;8.20;5.80;;;;;;;;;;5054129;28;20056;-69
2023/10/03 11:07:49;;;;;;;11.60;5.93;;;;;;;;;;5050976;28;20045;-69
2023/10/03 11:10:17;;;;;;;8.50;6.10;;;;;;;;;;5054280;28;20049;-69
2023/10/03 11:12:44;;;;;;;11.02;5.88;;;;;;;;;;5051116;28;20079;-68
2023/10/03 11:15:14;;;;;;;8.90;6.13;;;;;;;;;;5053949;28;20052;-69
2023/10/03 11:17:49;;;;;;;10.80;6.65;;;;;;;;;;5053942;28;20048;-68
2023/10/03 11:20:16;;;;;;;10.13;6.13;;;;;;;;;;5054137;28;20044;-69
2023/10/03 11:22:43;;;;;;;9.43;6.47;;;;;;;;;;5050752;28;20049;-69
2023/10/03 11:25:11;;;;;;;7.90;5.85;;;;;;;;;;5053677;28;20079;-69
2023/10/03 11:27:38;;;;;;;11.48;5.93;;;;;;;;;;5053646;28;20044;-69
2023/10/03 11:30:14;;;;;;;11.02;6.00;;;;;;;;;;5054121;28;20402;-69
2023/10/03 11:32:44;;;;;;;8.55;5.82;;;;;;;;;;5054192;28;20071;-69
2023/10/03 11:35:16;;;;;;;9.75;6.00;;;;;;;;;;5053580;28;20049;-68
2023/10/03 11:37:44;;;;;;;8.73;5.28;;;;;;;;;;5053295;28;20102;-69
2023/10/03 11:40:14;;;;;;;8.55;6.15;;;;;;;;;;5053830;28;20090;-69
2023/10/03 11:42:48;;;;;;;6.50;5.28;;;;;;;;;;5053219;28;20049;-68
2023/10/03 11:45:18;;;;;;;8.63;6.10;;;;;;;;;;5053631;28;20052;-69
2023/10/03 11:48:04;;;;;;;9.65;5.50;;;;;;;;;;5053035;28;20056;-68
2023/10/03 11:50:33;;;;;;;7.95;5.88;;;;;;;;;;5053760;28;20402;-69
2023/10/03 11:53:00;;;;;;;7.60;5.97;;;;;;;;;;5053348;28;20053;-69
2023/10/03 11:55:27;;;;;;;11.00;5.97;;;;;;;;;;5053191;28;20084;-69
2023/10/03 11:57:54;;;;;;;8.70;5.10;;;;;;;;;;5052737;28;20063;-69
2023/10/03 12:00:24;;;;;;;7.88;5.57;;;;;;;;;;5053143;28;20409;-69
2023/10/03 12:02:53;;;;;;;7.85;4.97;;;;;;;;;;5052507;28;20401;-69
2023/10/03 12:05:19;;;;;;;6.28;4.93;;;;;;;;;;5053484;28;20047;-68
2023/10/03 12:07:47;;;;;;;5.65;4.07;;;;;;;;;;5052771;28;20049;-68
2023/10/03 12:10:14;;;;;;;7.50;4.10;;;;;;;;;;5052868;28;20075;-69
2023/10/03 12:12:41;;;;;;;7.95;4.00;;;;;;;;;;5052522;28;20527;-68
2023/10/03 12:15:12;;;;;;;9.10;4.60;;;;;;;;;;5052639;28;20413;-69
2023/10/03 12:17:39;;;;;;;9.02;4.47;;;;;;;;;;5052734;28;20087;-68
2023/10/03 12:20:11;;;;;;;5.57;4.28;;;;;;;;;;5052741;28;20053;-69
2023/10/03 12:22:39;;;;;;;;;;;;;;;;;;5053109;28;20048;-68
2023/10/03 12:25:08;;;;;;;5.47;4.30;;;;;;;;;;5049143;28;19921;-69
2023/10/03 12:27:35;;;;;;;7.72;3.65;;;;;;;;;;5052200;28;20081;-69
2023/10/03 12:30:04;;;;;;;4.25;3.53;;;;;;;;;;5052574;28;20049;-69
2023/10/03 12:32:34;;;;;;;6.35;2.45;;;;;;;;;;5052495;28;20049;-69
2023/10/03 12:35:00;;;;;;;2.35;1.73;;;;;;;;;;5052643;28;20132;-69
2023/10/03 12:37:28;;;;;;;5.03;1.75;;;;;;;;;;5052066;28;20045;-69
2023/10/03 12:39:55;;;;;;;2.70;2.00;;;;;;;;;;5052271;28;20094;-69
2023/10/03 12:42:22;;;;;;;2.50;1.52;;;;;;;;;;5052186;28;20428;-69
2023/10/03 12:44:50;;;;;;;2.40;1.50;;;;;;;;;;5052233;28;20041;-69
2023/10/03 12:47:18;;;;;;;3.05;1.70;;;;;;;;;;5052102;28;20045;-69
2023/10/03 12:49:44;;;;;;;2.45;1.58;;;;;;;;;;5052184;28;20049;-69
2023/10/03 12:52:11;;;;;;;1.80;1.45;;;;;;;;;;5052152;28;20049;-69
2023/10/03 12:54:39;;;;;;;1.88;1.48;;;;;;;;;;5051735;28;20436;-69
2023/10/03 12:57:05;;;;;;;2.75;1.77;;;;;;;;;;5048347;28;20045;-69
2023/10/03 12:59:31;;;;;;;2.03;1.33;;;;;;;;;;5052407;28;20416;-69
2023/10/03 13:01:59;;;;;;;2.33;1.65;;;;;;;;;;5051883;28;20045;-69
2023/10/03 13:04:27;;;;;;;3.42;2.10;;;;;;;;;;5051992;28;20110;-69
2023/10/03 13:06:54;;;;;;;3.33;1.60;;;;;;;;;;5051635;28;20045;-69
2023/10/03 13:09:21;;;;;;;5.50;2.25;;;;;;;;;;5051593;28;20052;-69
2023/10/03 13:11:49;;;;;;;3.80;1.60;;;;;;;;;;5051722;28;20471;-69
2023/10/03 13:14:15;;;;;;;2.65;1.75;;;;;;;;;;5050489;28;20045;-69
2023/10/03 13:16:42;;;;;;;4.40;2.15;;;;;;;;;;5051654;28;20440;-69
2023/10/03 13:19:10;;;;;;;3.53;2.17;;;;;;;;;;5051725;28;20493;-69
2023/10/03 13:21:38;;;;;;;1.95;1.40;;;;;;;;;;5051366;28;20064;-69
2023/10/03 13:24:05;;;;;;;2.35;1.52;;;;;;;;;;5051533;28;20056;-69
2023/10/03 13:26:31;;;;;;;3.00;1.50;;;;;;;;;;5049750;28;20568;-69
2023/10/03 13:28:59;;;;;;;4.10;1.92;;;;;;;;;;5051514;28;20049;-69
2023/10/03 13:31:27;;;;;;;3.47;2.17;;;;;;;;;;5051549;28;21092;-69
2023/10/03 13:33:54;;;;;;;2.80;1.90;;;;;;;;;;5051221;28;20132;-69
2023/10/03 13:36:20;;;;;;;3.30;2.10;;;;;;;;;;5050821;28;20052;-69
2023/10/03 13:38:47;;;;;;;2.85;2.22;;;;;;;;;;5051783;28;20511;-69
2023/10/03 13:41:13;;;;;;;3.90;2.63;;;;;;;;;;5051789;28;20041;-69
2023/10/03 13:43:40;;;;;;;4.50;2.45;;;;;;;;;;5051041;28;20053;-69
2023/10/03 13:46:08;;;;;;;4.78;3.05;;;;;;;;;;5050958;28;20420;-69
2023/10/03 13:48:35;;;;;;;6.40;3.03;;;;;;;;;;5051186;28;20045;-69
2023/10/03 13:51:02;;;;;;;6.28;3.20;;;;;;;;;;5051095;28;20045;-69
2023/10/03 13:53:29;;;;;;;4.15;2.83;;;;;;;;;;5051106;28;20084;-69
2023/10/03 13:55:58;;;;;;;5.45;3.20;;;;;;;;;;5051254;28;20156;-69
2023/10/03 13:58:29;;;;;;;4.68;2.67;;;;;;;;;;5050735;28;20171;-69
2023/10/03 14:00:55;;;;;;;4.40;3.05;;;;;;;;;;5051087;28;20045;-69
2023/10/03 14:03:23;;;;;;;5.40;3.30;;;;;;;;;;5050356;28;20044;-69
2023/10/03 14:05:50;;;;;;;5.53;3.30;;;;;;;;;;5050869;28;20418;-69
2023/10/03 14:08:17;;;;;;;6.38;3.80;;;;;;;;;;5050896;28;20045;-69
2023/10/03 14:10:44;;;;;;;7.00;3.75;;;;;;;;;;5051004;28;20464;-69
2023/10/03 14:13:11;;;;;;;5.03;3.15;;;;;;;;;;5050734;28;20488;-69
2023/10/03 14:15:38;;;;;;;5.35;2.90;;;;;;;;;;5050852;28;20049;-69
2023/10/03 14:18:05;;;;;;;8.10;4.03;;;;;;;;;;5050566;28;20059;-69
2023/10/03 14:20:33;;;;;;;4.85;3.30;;;;;;;;;;5049617;28;20053;-69
2023/10/03 14:23:00;;;;;;;5.43;3.30;;;;;;;;;;5050735;28;20136;-69
2023/10/03 14:25:26;;;;;;;5.78;3.38;;;;;;;;;;5050297;28;20061;-69
2023/10/03 14:27:54;;;;;;;6.35;3.25;;;;;;;;;;5050514;28;20041;-68
2023/10/03 14:30:20;;;;;;;5.63;4.20;;;;;;;;;;5050490;28;20045;-69
2023/10/03 14:32:48;;;;;;;4.72;3.60;;;;;;;;;;5050948;28;20056;-69
2023/10/03 14:35:15;;;;;;;7.03;4.53;;;;;;;;;;5050598;28;20049;-69
2023/10/03 14:37:43;;;;;;;5.25;3.60;;;;;;;;;;5050219;28;20045;-69
2023/10/03 14:40:15;;;;;;;4.00;2.97;;;;;;;;;;5050456;28;20045;-69
2023/10/03 14:42:42;;;;;;;7.70;4.03;;;;;;;;;;5050348;28;20053;-69